Time,TemperatureF,DewpointF,PressureIn,WindDirection,WindDirectionDegrees,WindSpeedMPH,WindSpeedGustMPH,Humidity,HourlyPrecipIn,Conditions,Clouds,dailyrainin,SoftwareType,DateUTC
2013-11-04 00:00:00,36.4,34.0,30.29,North,1,0.0,0.0,91,0.00,CLR,,0.00,WeatherDisplay:10.37,2013-11-04 05:00:00,
2013-11-04 01:00:00,34.7,32.4,30.29,North,0,0.0,0.0,91,0.00,CLR,,0.00,WeatherDisplay:10.37,2013-11-04 06:00:00,
2013-11-04 02:00:00,34.1,31.8,30.30,North,3,0.0,0.0,91,0.00,CLR,,0.00,WeatherDisplay:10.37,2013-11-04 07:00:00,
2013-11-04 03:00:00,33.7,31.3,30.31,North,1,0.0,0.0,91,0.00,CLR,,0.00,WeatherDisplay:10.37,2013-11-04 08:00:00,
2013-11-04 04:00:00,32.4,30.0,30.31,North,2,0.0,0.0,91,0.00,BKN,,0.00,WeatherDisplay:10.37,2013-11-04 09:00:00,
2013-11-04 05:00:00,31.7,29.4,30.33,North,3,0.0,0.0,91,0.00,CLR,,0.00,WeatherDisplay:10.37,2013-11-04 10:00:00,
2013-11-04 06:00:00,31.4,29.1,30.34,North,1,0.0,0.0,91,0.00,CLR,,0.00,WeatherDisplay:10.37,2013-11-04 11:00:00,
2013-11-04 07:00:00,30.9,28.6,30.35,North,1,0.0,0.0,91,0.00,CLR,,0.00,WeatherDisplay:10.37,2013-11-04 12:00:00,
2013-11-04 08:00:00,31.1,28.8,30.38,North,1,0.0,0.0,91,0.00,CLR,,0.00,WeatherDisplay:10.37,2013-11-04 13:00:00,
2013-11-04 09:00:00,33.7,31.3,30.37,North,1,0.0,0.0,91,0.00,CLR,,0.00,WeatherDisplay:10.37,2013-11-04 14:00:00,
2013-11-04 10:00:00,39.7,37.3,30.37,North,1,0.0,0.0,91,0.00,CLR,,0.00,WeatherDisplay:10.37,2013-11-04 15:00:00,
2013-11-04 11:00:00,50.4,47.8,30.36,North,1,0.0,0.0,91,0.00,CLR,,0.00,WeatherDisplay:10.37,2013-11-04 16:00:00,
2013-11-04 12:00:00,54.7,52.1,30.36,North,1,0.0,0.0,91,0.00,CLR,,0.00,WeatherDisplay:10.37,2013-11-04 17:00:00,
2013-11-04 13:00:00,56.9,54.3,30.33,North,1,0.0,0.0,91,0.00,CLR,,0.00,WeatherDisplay:10.37,2013-11-04 18:00:00,
2013-11-04 14:00:00,60.9,39.9,30.32,SE,131,2.0,10.0,46,0.00,CLR,,0.00,WeatherDisplay:10.37,2013-11-04 19:00:00,
2013-11-04 15:00:00,60.2,38.8,30.31,SSE,158,0.0,9.0,45,0.00,CLR,,0.00,WeatherDisplay:10.37,2013-11-04 20:00:00,
2013-11-04 16:00:00,58.1,38.5,30.33,SSE,154,2.0,9.0,48,0.00,CLR,,0.00,WeatherDisplay:10.37,2013-11-04 21:00:00,
2013-11-04 17:00:00,55.3,37.5,30.33,SSW,205,0.0,7.0,51,0.00,CLR,,0.00,WeatherDisplay:10.37,2013-11-04 22:00:00,
2013-11-04 18:00:00,50.5,40.4,30.33,SW,221,0.0,3.0,68,0.00,CLR,,0.00,WeatherDisplay:10.37,2013-11-04 23:00:00,
2013-11-04 19:00:00,45.3,38.8,30.35,South,171,0.0,2.0,78,0.00,CLR,,0.00,WeatherDisplay:10.37,2013-11-05 00:00:00,
2013-11-04 20:00:00,41.9,38.0,30.37,South,171,0.0,1.0,86,0.00,CLR,,0.00,WeatherDisplay:10.37,2013-11-05 01:00:00,
2013-11-04 21:00:00,39.2,35.9,30.40,South,171,0.0,1.0,88,0.00,CLR,,0.00,WeatherDisplay:10.37,2013-11-05 02:00:00,
2013-11-04 22:00:00,37.0,34.6,30.40,South,171,0.0,1.0,91,0.00,CLR,,0.00,WeatherDisplay:10.37,2013-11-05 03:00:00,
2013-11-04 23:00:00,35.6,33.8,30.40,South,171,0.0,1.0,93,0.00,CLR,,0.00,WeatherDisplay:10.37,2013-11-05 04:00:00,